CPX961 Details

Departure: Washington Dulles International Airport (KIAD)
Arrival: Joint Base McGuire Dix Lakehurst (KWRI) at N/A
Route: MXE
Notes: EMPTY | NON-REVENUE REPOSITIONING LEG


Current Weather Information
KIAD 251152Z 01006KT 10SM FEW030 BKN075 19/14 A3023 RMK AO2 SLP235 T01890139 10189 20161 53013 $
KWRI 251156Z AUTO 04010KT 10SM CLR 18/15 A3023 RMK AO2 SLP236 T01840147 10184 20138 53009 $